KGGE

Georgetown County Airport

Georgetown, South Carolina, USA
METAR KGGE 221935Z AUTO 00000KT 10SM CLR 20/01 A3028 RMK AO2
Observed Flight Rules
Oct-22 @ 19:35 UTC (10 minutes ago) Visual Flight Rules
Visibility Clouds
10 miles
  • Clear skies
Temperatures Readings
Current 20°C / 68°F
Dewpoint 1°C / 34°F
Humidity 28%
Altimeter 30.28" Hg
Pressure 1025 hPa
Elevation 12
METAR KGGE 221935Z AUTO 00000KT 10SM CLR 20/01 A3028 RMK AO2
Observed Flight Rules
Oct-22 @ 19:35 UTC
(10 minutes ago)
VFR
Clouds
  • Clear skies
Temperature Dewpoint
20°C / 68°F 1°C / 34°F
Humidity Altimeter Pressure
28% 30.28" Hg 1025 hPa